sensor_id;sensor_type;location;lat;lon;timestamp;temperature;humidity
43338;DHT22;28933;52.492;13.434;2023-03-11T00:00:13;3.40;99.90
43338;DHT22;28933;52.492;13.434;2023-03-11T00:02:46;3.40;99.90
43338;DHT22;28933;52.492;13.434;2023-03-11T00:05:16;3.40;99.90
43338;DHT22;28933;52.492;13.434;2023-03-11T00:07:42;3.40;99.90
43338;DHT22;28933;52.492;13.434;2023-03-11T00:10:12;3.40;99.90
43338;DHT22;28933;52.492;13.434;2023-03-11T00:12:38;3.50;99.90
43338;DHT22;28933;52.492;13.434;2023-03-11T00:15:04;3.50;99.90
43338;DHT22;28933;52.492;13.434;2023-03-11T00:17:30;3.50;99.90
43338;DHT22;28933;52.492;13.434;2023-03-11T00:19:56;3.50;99.90
43338;DHT22;28933;52.492;13.434;2023-03-11T00:22:21;3.50;99.90
43338;DHT22;28933;52.492;13.434;2023-03-11T00:24:47;3.50;99.90
43338;DHT22;28933;52.492;13.434;2023-03-11T00:27:12;3.60;99.90
43338;DHT22;28933;52.492;13.434;2023-03-11T00:29:38;3.50;99.90
43338;DHT22;28933;52.492;13.434;2023-03-11T00:32:04;3.50;99.90
43338;DHT22;28933;52.492;13.434;2023-03-11T00:34:29;3.60;99.90
43338;DHT22;28933;52.492;13.434;2023-03-11T00:36:55;3.60;99.90
43338;DHT22;28933;52.492;13.434;2023-03-11T00:39:21;3.60;99.90
43338;DHT22;28933;52.492;13.434;2023-03-11T00:41:47;3.50;99.90
43338;DHT22;28933;52.492;13.434;2023-03-11T00:44:13;3.50;99.90
43338;DHT22;28933;52.492;13.434;2023-03-11T00:46:38;3.60;99.90
43338;DHT22;28933;52.492;13.434;2023-03-11T00:49:04;3.50;99.90
43338;DHT22;28933;52.492;13.434;2023-03-11T00:51:30;3.50;99.90
43338;DHT22;28933;52.492;13.434;2023-03-11T00:53:56;3.50;99.90
43338;DHT22;28933;52.492;13.434;2023-03-11T00:56:22;3.50;99.90
43338;DHT22;28933;52.492;13.434;2023-03-11T00:58:47;3.50;99.90
43338;DHT22;28933;52.492;13.434;2023-03-11T01:01:16;3.50;99.90
43338;DHT22;28933;52.492;13.434;2023-03-11T01:03:42;3.40;99.90
43338;DHT22;28933;52.492;13.434;2023-03-11T01:06:08;3.40;99.90
43338;DHT22;28933;52.492;13.434;2023-03-11T01:08:34;3.50;99.90
43338;DHT22;28933;52.492;13.434;2023-03-11T01:11:00;3.50;99.90
43338;DHT22;28933;52.492;13.434;2023-03-11T01:13:27;3.50;99.90
43338;DHT22;28933;52.492;13.434;2023-03-11T01:15:53;3.50;99.90
43338;DHT22;28933;52.492;13.434;2023-03-11T01:18:19;3.40;99.90
43338;DHT22;28933;52.492;13.434;2023-03-11T01:20:46;3.50;99.90
43338;DHT22;28933;52.492;13.434;2023-03-11T01:23:12;3.50;99.90
43338;DHT22;28933;52.492;13.434;2023-03-11T01:25:38;3.40;99.90
43338;DHT22;28933;52.492;13.434;2023-03-11T01:28:04;3.40;99.90
43338;DHT22;28933;52.492;13.434;2023-03-11T01:30:30;3.30;99.90
43338;DHT22;28933;52.492;13.434;2023-03-11T01:32:56;3.30;99.90
43338;DHT22;28933;52.492;13.434;2023-03-11T01:35:24;3.30;99.90
43338;DHT22;28933;52.492;13.434;2023-03-11T01:37:50;3.30;99.90
43338;DHT22;28933;52.492;13.434;2023-03-11T01:40:21;3.20;99.90
43338;DHT22;28933;52.492;13.434;2023-03-11T01:42:48;3.20;99.90
43338;DHT22;28933;52.492;13.434;2023-03-11T01:47:54;3.10;99.90
43338;DHT22;28933;52.492;13.434;2023-03-11T01:50:20;3.10;99.90
43338;DHT22;28933;52.492;13.434;2023-03-11T01:52:46;3.10;99.90
43338;DHT22;28933;52.492;13.434;2023-03-11T01:55:12;3.00;99.90
43338;DHT22;28933;52.492;13.434;2023-03-11T01:57:40;3.00;99.90
43338;DHT22;28933;52.492;13.434;2023-03-11T02:00:09;3.00;99.90
43338;DHT22;28933;52.492;13.434;2023-03-11T02:02:39;2.90;99.90
43338;DHT22;28933;52.492;13.434;2023-03-11T02:05:06;2.90;99.90
43338;DHT22;28933;52.492;13.434;2023-03-11T02:07:32;3.00;99.90
43338;DHT22;28933;52.492;13.434;2023-03-11T02:09:58;3.00;99.90
43338;DHT22;28933;52.492;13.434;2023-03-11T02:12:24;3.00;99.90
43338;DHT22;28933;52.492;13.434;2023-03-11T02:14:51;3.00;99.90
43338;DHT22;28933;52.492;13.434;2023-03-11T02:17:18;3.00;99.90
43338;DHT22;28933;52.492;13.434;2023-03-11T02:20:12;3.00;99.90
43338;DHT22;28933;52.492;13.434;2023-03-11T02:22:40;3.10;99.90
43338;DHT22;28933;52.492;13.434;2023-03-11T02:25:17;3.00;99.90
43338;DHT22;28933;52.492;13.434;2023-03-11T02:27:47;3.10;99.90
43338;DHT22;28933;52.492;13.434;2023-03-11T02:30:15;3.10;99.90
43338;DHT22;28933;52.492;13.434;2023-03-11T02:32:44;3.00;99.90
43338;DHT22;28933;52.492;13.434;2023-03-11T02:35:13;3.00;99.90
43338;DHT22;28933;52.492;13.434;2023-03-11T02:37:44;3.00;99.90
43338;DHT22;28933;52.492;13.434;2023-03-11T02:42:54;3.00;99.90
43338;DHT22;28933;52.492;13.434;2023-03-11T02:45:23;3.00;99.90
43338;DHT22;28933;52.492;13.434;2023-03-11T02:47:50;3.00;99.90
43338;DHT22;28933;52.492;13.434;2023-03-11T02:50:16;3.00;99.90
43338;DHT22;28933;52.492;13.434;2023-03-11T02:52:43;2.90;99.90
43338;DHT22;28933;52.492;13.434;2023-03-11T02:55:10;2.90;99.90
43338;DHT22;28933;52.492;13.434;2023-03-11T02:57:40;3.00;99.90
43338;DHT22;28933;52.492;13.434;2023-03-11T03:00:08;3.00;99.90
43338;DHT22;28933;52.492;13.434;2023-03-11T03:02:40;3.00;99.90
43338;DHT22;28933;52.492;13.434;2023-03-11T03:05:07;3.10;99.90
43338;DHT22;28933;52.492;13.434;2023-03-11T03:07:33;3.10;99.90
43338;DHT22;28933;52.492;13.434;2023-03-11T03:09:58;3.10;99.90
43338;DHT22;28933;52.492;13.434;2023-03-11T03:12:24;3.10;99.90
43338;DHT22;28933;52.492;13.434;2023-03-11T03:14:50;3.00;99.90
43338;DHT22;28933;52.492;13.434;2023-03-11T03:17:16;3.00;99.90
43338;DHT22;28933;52.492;13.434;2023-03-11T03:19:41;3.00;99.90
43338;DHT22;28933;52.492;13.434;2023-03-11T03:22:07;3.00;99.90
43338;DHT22;28933;52.492;13.434;2023-03-11T03:24:33;3.10;99.90
43338;DHT22;28933;52.492;13.434;2023-03-11T03:26:58;3.10;99.90
43338;DHT22;28933;52.492;13.434;2023-03-11T03:29:24;3.10;99.90
43338;DHT22;28933;52.492;13.434;2023-03-11T03:31:49;3.10;99.90
43338;DHT22;28933;52.492;13.434;2023-03-11T03:34:15;3.00;99.90
43338;DHT22;28933;52.492;13.434;2023-03-11T03:36:41;3.10;99.90
43338;DHT22;28933;52.492;13.434;2023-03-11T03:39:06;3.10;99.90
43338;DHT22;28933;52.492;13.434;2023-03-11T03:41:32;3.20;99.90
43338;DHT22;28933;52.492;13.434;2023-03-11T03:43:57;3.20;99.90
43338;DHT22;28933;52.492;13.434;2023-03-11T03:46:24;3.20;99.90
43338;DHT22;28933;52.492;13.434;2023-03-11T03:48:49;3.20;99.90
43338;DHT22;28933;52.492;13.434;2023-03-11T03:51:15;3.20;99.90
43338;DHT22;28933;52.492;13.434;2023-03-11T03:53:41;3.20;99.90
43338;DHT22;28933;52.492;13.434;2023-03-11T03:56:12;3.20;99.90
43338;DHT22;28933;52.492;13.434;2023-03-11T03:58:39;3.20;99.90
43338;DHT22;28933;52.492;13.434;2023-03-11T04:01:05;3.20;99.90
43338;DHT22;28933;52.492;13.434;2023-03-11T04:03:31;3.20;99.90
43338;DHT22;28933;52.492;13.434;2023-03-11T04:06:16;3.20;99.90
43338;DHT22;28933;52.492;13.434;2023-03-11T04:08:42;3.30;99.90
43338;DHT22;28933;52.492;13.434;2023-03-11T04:11:08;3.30;99.90
43338;DHT22;28933;52.492;13.434;2023-03-11T04:13:34;3.30;99.90
43338;DHT22;28933;52.492;13.434;2023-03-11T04:16:02;3.30;99.90
43338;DHT22;28933;52.492;13.434;2023-03-11T04:18:28;3.30;99.90
43338;DHT22;28933;52.492;13.434;2023-03-11T04:20:53;3.30;99.90
43338;DHT22;28933;52.492;13.434;2023-03-11T04:23:19;3.30;99.90
43338;DHT22;28933;52.492;13.434;2023-03-11T04:25:45;3.40;99.90
43338;DHT22;28933;52.492;13.434;2023-03-11T04:28:10;3.40;99.90
43338;DHT22;28933;52.492;13.434;2023-03-11T04:30:36;3.40;99.90
43338;DHT22;28933;52.492;13.434;2023-03-11T04:33:01;3.40;99.90
43338;DHT22;28933;52.492;13.434;2023-03-11T04:35:27;3.40;99.90
43338;DHT22;28933;52.492;13.434;2023-03-11T04:37:53;3.40;99.90
43338;DHT22;28933;52.492;13.434;2023-03-11T04:40:18;3.40;99.90
43338;DHT22;28933;52.492;13.434;2023-03-11T04:42:44;3.50;99.90
43338;DHT22;28933;52.492;13.434;2023-03-11T04:45:10;3.50;99.90
43338;DHT22;28933;52.492;13.434;2023-03-11T04:47:36;3.50;99.90
43338;DHT22;28933;52.492;13.434;2023-03-11T04:50:02;3.50;99.90
43338;DHT22;28933;52.492;13.434;2023-03-11T04:52:28;3.50;99.90
43338;DHT22;28933;52.492;13.434;2023-03-11T04:54:53;3.50;99.90
43338;DHT22;28933;52.492;13.434;2023-03-11T04:57:19;3.40;99.90
43338;DHT22;28933;52.492;13.434;2023-03-11T04:59:44;3.30;99.90
43338;DHT22;28933;52.492;13.434;2023-03-11T05:02:10;3.30;99.90
43338;DHT22;28933;52.492;13.434;2023-03-11T05:04:36;3.20;99.90
43338;DHT22;28933;52.492;13.434;2023-03-11T05:07:01;3.30;99.90
43338;DHT22;28933;52.492;13.434;2023-03-11T05:09:27;3.30;99.90
43338;DHT22;28933;52.492;13.434;2023-03-11T05:11:53;3.30;99.90
43338;DHT22;28933;52.492;13.434;2023-03-11T05:14:18;3.30;99.90
43338;DHT22;28933;52.492;13.434;2023-03-11T05:16:44;3.30;99.90
43338;DHT22;28933;52.492;13.434;2023-03-11T05:19:10;3.30;99.90
43338;DHT22;28933;52.492;13.434;2023-03-11T05:21:54;3.30;99.90
43338;DHT22;28933;52.492;13.434;2023-03-11T05:24:19;3.30;99.90
43338;DHT22;28933;52.492;13.434;2023-03-11T05:26:45;3.30;99.90
43338;DHT22;28933;52.492;13.434;2023-03-11T05:29:11;3.20;99.90
43338;DHT22;28933;52.492;13.434;2023-03-11T05:31:37;3.30;99.90
43338;DHT22;28933;52.492;13.434;2023-03-11T05:34:03;3.30;99.90
43338;DHT22;28933;52.492;13.434;2023-03-11T05:36:29;3.30;99.90
43338;DHT22;28933;52.492;13.434;2023-03-11T05:38:54;3.30;99.90
43338;DHT22;28933;52.492;13.434;2023-03-11T05:41:20;3.30;99.90
43338;DHT22;28933;52.492;13.434;2023-03-11T05:43:45;3.30;99.90
43338;DHT22;28933;52.492;13.434;2023-03-11T05:46:11;3.30;99.90
43338;DHT22;28933;52.492;13.434;2023-03-11T05:48:37;3.40;99.90
43338;DHT22;28933;52.492;13.434;2023-03-11T05:51:10;3.50;99.90
43338;DHT22;28933;52.492;13.434;2023-03-11T05:53:36;3.40;99.90
43338;DHT22;28933;52.492;13.434;2023-03-11T05:56:03;3.40;99.90
43338;DHT22;28933;52.492;13.434;2023-03-11T05:58:29;3.40;99.90
43338;DHT22;28933;52.492;13.434;2023-03-11T06:00:55;3.40;99.90
43338;DHT22;28933;52.492;13.434;2023-03-11T06:03:21;3.40;99.90
43338;DHT22;28933;52.492;13.434;2023-03-11T06:05:48;3.40;99.90
43338;DHT22;28933;52.492;13.434;2023-03-11T06:08:14;3.40;99.90
43338;DHT22;28933;52.492;13.434;2023-03-11T06:10:40;3.40;99.90
43338;DHT22;28933;52.492;13.434;2023-03-11T06:13:06;3.50;99.90
43338;DHT22;28933;52.492;13.434;2023-03-11T06:15:33;3.50;99.90
43338;DHT22;28933;52.492;13.434;2023-03-11T06:17:59;3.50;99.90
43338;DHT22;28933;52.492;13.434;2023-03-11T06:20:25;3.50;99.90
43338;DHT22;28933;52.492;13.434;2023-03-11T06:22:51;3.50;99.90
43338;DHT22;28933;52.492;13.434;2023-03-11T06:25:17;3.50;99.90
43338;DHT22;28933;52.492;13.434;2023-03-11T06:27:43;3.50;99.90
43338;DHT22;28933;52.492;13.434;2023-03-11T06:30:13;3.50;99.90
43338;DHT22;28933;52.492;13.434;2023-03-11T06:32:38;3.50;99.90
43338;DHT22;28933;52.492;13.434;2023-03-11T06:35:04;3.60;99.90
43338;DHT22;28933;52.492;13.434;2023-03-11T06:37:30;3.50;99.90
43338;DHT22;28933;52.492;13.434;2023-03-11T06:39:55;3.50;99.90
43338;DHT22;28933;52.492;13.434;2023-03-11T06:42:21;3.50;99.90
43338;DHT22;28933;52.492;13.434;2023-03-11T06:44:51;3.60;99.90
43338;DHT22;28933;52.492;13.434;2023-03-11T06:47:16;3.60;99.90
43338;DHT22;28933;52.492;13.434;2023-03-11T06:49:42;3.50;99.90
43338;DHT22;28933;52.492;13.434;2023-03-11T06:52:08;3.50;99.90
43338;DHT22;28933;52.492;13.434;2023-03-11T06:54:34;3.50;99.90
43338;DHT22;28933;52.492;13.434;2023-03-11T06:57:00;3.50;99.90
43338;DHT22;28933;52.492;13.434;2023-03-11T06:59:26;3.60;99.90
43338;DHT22;28933;52.492;13.434;2023-03-11T07:01:53;3.50;99.90
43338;DHT22;28933;52.492;13.434;2023-03-11T07:04:19;3.60;99.90
43338;DHT22;28933;52.492;13.434;2023-03-11T07:06:44;3.60;99.90
43338;DHT22;28933;52.492;13.434;2023-03-11T07:09:10;3.60;99.90
43338;DHT22;28933;52.492;13.434;2023-03-11T07:11:36;3.60;99.90
43338;DHT22;28933;52.492;13.434;2023-03-11T07:14:02;3.60;99.90
43338;DHT22;28933;52.492;13.434;2023-03-11T07:16:29;3.50;99.90
43338;DHT22;28933;52.492;13.434;2023-03-11T07:18:59;3.50;99.90
43338;DHT22;28933;52.492;13.434;2023-03-11T07:21:28;3.50;99.90
43338;DHT22;28933;52.492;13.434;2023-03-11T07:23:56;3.50;99.90
43338;DHT22;28933;52.492;13.434;2023-03-11T07:26:23;3.50;99.90
43338;DHT22;28933;52.492;13.434;2023-03-11T07:28:49;3.40;99.90
43338;DHT22;28933;52.492;13.434;2023-03-11T07:31:18;3.40;99.90
43338;DHT22;28933;52.492;13.434;2023-03-11T07:33:44;3.50;99.90
43338;DHT22;28933;52.492;13.434;2023-03-11T07:36:14;3.50;99.90
43338;DHT22;28933;52.492;13.434;2023-03-11T07:38:41;3.60;99.90
43338;DHT22;28933;52.492;13.434;2023-03-11T07:41:07;3.60;99.90
43338;DHT22;28933;52.492;13.434;2023-03-11T07:43:33;3.60;99.90
43338;DHT22;28933;52.492;13.434;2023-03-11T07:46:14;3.70;99.90
43338;DHT22;28933;52.492;13.434;2023-03-11T07:48:42;3.70;99.90
43338;DHT22;28933;52.492;13.434;2023-03-11T07:51:15;3.70;99.90
43338;DHT22;28933;52.492;13.434;2023-03-11T07:53:41;3.80;99.90
43338;DHT22;28933;52.492;13.434;2023-03-11T07:56:09;3.70;99.90
43338;DHT22;28933;52.492;13.434;2023-03-11T07:58:35;3.70;99.90
43338;DHT22;28933;52.492;13.434;2023-03-11T08:01:11;3.80;99.90
43338;DHT22;28933;52.492;13.434;2023-03-11T08:03:37;3.80;99.90
43338;DHT22;28933;52.492;13.434;2023-03-11T08:06:20;3.90;99.90
43338;DHT22;28933;52.492;13.434;2023-03-11T08:08:47;4.00;99.90
43338;DHT22;28933;52.492;13.434;2023-03-11T08:11:13;4.00;99.90
43338;DHT22;28933;52.492;13.434;2023-03-11T08:13:40;4.10;99.90
43338;DHT22;28933;52.492;13.434;2023-03-11T08:16:07;4.10;99.90
43338;DHT22;28933;52.492;13.434;2023-03-11T08:18:33;4.20;99.90
43338;DHT22;28933;52.492;13.434;2023-03-11T08:21:03;4.20;99.90
43338;DHT22;28933;52.492;13.434;2023-03-11T08:23:29;4.20;99.90
43338;DHT22;28933;52.492;13.434;2023-03-11T08:25:55;4.20;99.90
43338;DHT22;28933;52.492;13.434;2023-03-11T08:28:20;4.30;99.90
43338;DHT22;28933;52.492;13.434;2023-03-11T08:30:46;4.40;99.90
43338;DHT22;28933;52.492;13.434;2023-03-11T08:33:12;4.40;99.90
43338;DHT22;28933;52.492;13.434;2023-03-11T08:35:38;4.60;99.90
43338;DHT22;28933;52.492;13.434;2023-03-11T08:38:03;4.50;99.90
43338;DHT22;28933;52.492;13.434;2023-03-11T08:40:29;4.50;99.90
43338;DHT22;28933;52.492;13.434;2023-03-11T08:42:55;4.60;99.90
43338;DHT22;28933;52.492;13.434;2023-03-11T08:45:21;4.60;99.90
43338;DHT22;28933;52.492;13.434;2023-03-11T08:47:47;4.60;99.90
43338;DHT22;28933;52.492;13.434;2023-03-11T08:50:15;4.60;99.90
43338;DHT22;28933;52.492;13.434;2023-03-11T08:52:41;4.70;99.90
43338;DHT22;28933;52.492;13.434;2023-03-11T08:55:07;4.70;99.90
43338;DHT22;28933;52.492;13.434;2023-03-11T08:57:35;4.60;99.90
43338;DHT22;28933;52.492;13.434;2023-03-11T09:00:03;4.70;99.90
43338;DHT22;28933;52.492;13.434;2023-03-11T09:02:29;4.60;99.90
43338;DHT22;28933;52.492;13.434;2023-03-11T09:04:55;4.60;99.90
43338;DHT22;28933;52.492;13.434;2023-03-11T09:07:20;4.60;99.90
43338;DHT22;28933;52.492;13.434;2023-03-11T09:09:46;4.70;99.90
43338;DHT22;28933;52.492;13.434;2023-03-11T09:12:11;4.70;99.90
43338;DHT22;28933;52.492;13.434;2023-03-11T09:14:42;4.70;99.90
43338;DHT22;28933;52.492;13.434;2023-03-11T09:17:09;4.80;99.90
43338;DHT22;28933;52.492;13.434;2023-03-11T09:19:37;4.80;99.90
43338;DHT22;28933;52.492;13.434;2023-03-11T09:22:03;4.90;99.90
43338;DHT22;28933;52.492;13.434;2023-03-11T09:24:32;5.00;99.90
43338;DHT22;28933;52.492;13.434;2023-03-11T09:26:59;5.00;99.90
43338;DHT22;28933;52.492;13.434;2023-03-11T09:29:25;5.00;99.80
43338;DHT22;28933;52.492;13.434;2023-03-11T09:31:50;5.00;99.90
43338;DHT22;28933;52.492;13.434;2023-03-11T09:34:16;5.10;99.90
43338;DHT22;28933;52.492;13.434;2023-03-11T09:36:42;5.10;99.90
43338;DHT22;28933;52.492;13.434;2023-03-11T09:39:08;5.20;99.90
43338;DHT22;28933;52.492;13.434;2023-03-11T09:41:55;5.20;99.90
43338;DHT22;28933;52.492;13.434;2023-03-11T09:44:31;5.20;99.90
43338;DHT22;28933;52.492;13.434;2023-03-11T09:47:27;5.20;99.80
43338;DHT22;28933;52.492;13.434;2023-03-11T09:50:29;5.10;99.80
43338;DHT22;28933;52.492;13.434;2023-03-11T09:55:51;5.10;99.70
43338;DHT22;28933;52.492;13.434;2023-03-11T10:00:55;5.20;99.90
43338;DHT22;28933;52.492;13.434;2023-03-11T10:06:00;5.20;99.90
43338;DHT22;28933;52.492;13.434;2023-03-11T10:08:37;5.30;99.90
43338;DHT22;28933;52.492;13.434;2023-03-11T10:14:09;5.40;99.90
43338;DHT22;28933;52.492;13.434;2023-03-11T10:22:37;5.40;99.90
43338;DHT22;28933;52.492;13.434;2023-03-11T10:25:21;5.50;99.90
43338;DHT22;28933;52.492;13.434;2023-03-11T10:27:54;5.50;99.80
43338;DHT22;28933;52.492;13.434;2023-03-11T10:30:36;5.50;99.80
43338;DHT22;28933;52.492;13.434;2023-03-11T10:35:49;5.50;99.50
43338;DHT22;28933;52.492;13.434;2023-03-11T10:38:20;5.60;99.80
43338;DHT22;28933;52.492;13.434;2023-03-11T10:40:48;5.60;99.40
43338;DHT22;28933;52.492;13.434;2023-03-11T10:43:21;5.60;99.40
43338;DHT22;28933;52.492;13.434;2023-03-11T10:45:49;5.70;99.50
43338;DHT22;28933;52.492;13.434;2023-03-11T10:48:17;5.80;99.60
43338;DHT22;28933;52.492;13.434;2023-03-11T10:53:26;6.00;99.50
43338;DHT22;28933;52.492;13.434;2023-03-11T10:55:55;6.00;99.50
43338;DHT22;28933;52.492;13.434;2023-03-11T10:58:23;6.00;99.50
43338;DHT22;28933;52.492;13.434;2023-03-11T11:01:02;6.00;99.10
43338;DHT22;28933;52.492;13.434;2023-03-11T11:03:29;5.90;98.30
43338;DHT22;28933;52.492;13.434;2023-03-11T11:06:01;5.90;98.70
43338;DHT22;28933;52.492;13.434;2023-03-11T11:08:28;5.90;98.70
43338;DHT22;28933;52.492;13.434;2023-03-11T11:10:54;5.90;99.00
43338;DHT22;28933;52.492;13.434;2023-03-11T11:13:23;6.00;98.80
43338;DHT22;28933;52.492;13.434;2023-03-11T11:18:30;6.00;98.50
43338;DHT22;28933;52.492;13.434;2023-03-11T11:21:01;6.00;98.60
43338;DHT22;28933;52.492;13.434;2023-03-11T11:25:59;5.90;98.10
43338;DHT22;28933;52.492;13.434;2023-03-11T11:28:24;5.90;98.40
43338;DHT22;28933;52.492;13.434;2023-03-11T11:30:56;6.00;97.90
43338;DHT22;28933;52.492;13.434;2023-03-11T11:33:37;6.00;98.30
43338;DHT22;28933;52.492;13.434;2023-03-11T11:36:04;6.00;98.10
43338;DHT22;28933;52.492;13.434;2023-03-11T11:38:31;6.00;97.50
43338;DHT22;28933;52.492;13.434;2023-03-11T11:41:01;5.90;97.30
43338;DHT22;28933;52.492;13.434;2023-03-11T11:43:47;5.80;97.10
43338;DHT22;28933;52.492;13.434;2023-03-11T11:46:30;5.70;97.40
43338;DHT22;28933;52.492;13.434;2023-03-11T11:49:24;5.70;97.40
43338;DHT22;28933;52.492;13.434;2023-03-11T11:52:13;5.80;97.80
43338;DHT22;28933;52.492;13.434;2023-03-11T11:57:20;5.80;97.90
43338;DHT22;28933;52.492;13.434;2023-03-11T11:59:46;5.90;97.90
43338;DHT22;28933;52.492;13.434;2023-03-11T12:05:17;5.90;97.90
43338;DHT22;28933;52.492;13.434;2023-03-11T12:08:00;6.00;97.90
43338;DHT22;28933;52.492;13.434;2023-03-11T12:10:48;6.10;97.90
43338;DHT22;28933;52.492;13.434;2023-03-11T12:26:46;6.20;96.70
43338;DHT22;28933;52.492;13.434;2023-03-11T12:29:42;6.20;96.80
43338;DHT22;28933;52.492;13.434;2023-03-11T12:32:24;6.30;96.80
43338;DHT22;28933;52.492;13.434;2023-03-11T12:34:53;6.30;96.40
43338;DHT22;28933;52.492;13.434;2023-03-11T12:37:20;6.20;96.30
43338;DHT22;28933;52.492;13.434;2023-03-11T12:39:47;6.10;96.10
43338;DHT22;28933;52.492;13.434;2023-03-11T12:42:14;6.00;96.20
43338;DHT22;28933;52.492;13.434;2023-03-11T12:44:41;6.00;96.20
43338;DHT22;28933;52.492;13.434;2023-03-11T12:54:45;6.20;96.10
43338;DHT22;28933;52.492;13.434;2023-03-11T13:05:30;6.00;95.70
43338;DHT22;28933;52.492;13.434;2023-03-11T13:08:21;6.00;95.90
43338;DHT22;28933;52.492;13.434;2023-03-11T13:10:49;6.20;96.20
43338;DHT22;28933;52.492;13.434;2023-03-11T13:15:56;6.30;96.00
43338;DHT22;28933;52.492;13.434;2023-03-11T13:18:23;6.30;95.90
43338;DHT22;28933;52.492;13.434;2023-03-11T13:20:54;6.30;96.00
43338;DHT22;28933;52.492;13.434;2023-03-11T13:33:57;6.60;95.60
43338;DHT22;28933;52.492;13.434;2023-03-11T13:36:47;6.60;95.70
43338;DHT22;28933;52.492;13.434;2023-03-11T13:39:35;6.60;94.80
43338;DHT22;28933;52.492;13.434;2023-03-11T13:42:07;6.50;94.90
43338;DHT22;28933;52.492;13.434;2023-03-11T13:44:37;6.60;95.10
43338;DHT22;28933;52.492;13.434;2023-03-11T13:47:15;6.70;95.00
43338;DHT22;28933;52.492;13.434;2023-03-11T13:49:53;6.70;95.00
43338;DHT22;28933;52.492;13.434;2023-03-11T13:52:32;6.70;94.60
43338;DHT22;28933;52.492;13.434;2023-03-11T13:55:05;6.70;93.90
43338;DHT22;28933;52.492;13.434;2023-03-11T13:57:34;6.70;94.60
43338;DHT22;28933;52.492;13.434;2023-03-11T14:00:13;6.60;93.80
43338;DHT22;28933;52.492;13.434;2023-03-11T14:02:49;6.60;93.90
43338;DHT22;28933;52.492;13.434;2023-03-11T14:05:21;6.60;93.80
43338;DHT22;28933;52.492;13.434;2023-03-11T14:07:46;6.50;93.30
43338;DHT22;28933;52.492;13.434;2023-03-11T14:10:18;6.50;93.40
43338;DHT22;28933;52.492;13.434;2023-03-11T14:12:44;6.30;92.90
43338;DHT22;28933;52.492;13.434;2023-03-11T14:15:24;6.30;93.20
43338;DHT22;28933;52.492;13.434;2023-03-11T14:17:52;6.20;93.20
43338;DHT22;28933;52.492;13.434;2023-03-11T14:20:20;6.20;93.10
43338;DHT22;28933;52.492;13.434;2023-03-11T14:22:50;6.10;93.20
43338;DHT22;28933;52.492;13.434;2023-03-11T14:25:25;6.10;93.50
43338;DHT22;28933;52.492;13.434;2023-03-11T14:30:21;6.10;93.20
43338;DHT22;28933;52.492;13.434;2023-03-11T14:33:19;6.00;93.30
43338;DHT22;28933;52.492;13.434;2023-03-11T14:35:53;5.90;92.80
43338;DHT22;28933;52.492;13.434;2023-03-11T14:38:26;5.80;93.00
43338;DHT22;28933;52.492;13.434;2023-03-11T14:40:54;5.70;93.30
43338;DHT22;28933;52.492;13.434;2023-03-11T14:43:21;5.70;92.90
43338;DHT22;28933;52.492;13.434;2023-03-11T14:45:48;5.70;93.30
43338;DHT22;28933;52.492;13.434;2023-03-11T14:48:28;5.60;93.40
43338;DHT22;28933;52.492;13.434;2023-03-11T14:50:56;5.70;93.70
43338;DHT22;28933;52.492;13.434;2023-03-11T14:55:49;5.90;93.70
43338;DHT22;28933;52.492;13.434;2023-03-11T14:58:38;6.00;93.90
43338;DHT22;28933;52.492;13.434;2023-03-11T15:01:22;6.20;93.80
43338;DHT22;28933;52.492;13.434;2023-03-11T15:03:52;6.30;93.90
43338;DHT22;28933;52.492;13.434;2023-03-11T15:06:26;6.30;93.10
43338;DHT22;28933;52.492;13.434;2023-03-11T15:09:02;6.30;92.10
43338;DHT22;28933;52.492;13.434;2023-03-11T15:11:47;6.20;92.10
43338;DHT22;28933;52.492;13.434;2023-03-11T15:14:30;6.20;92.30
43338;DHT22;28933;52.492;13.434;2023-03-11T15:17:18;6.20;92.40
43338;DHT22;28933;52.492;13.434;2023-03-11T15:19:57;6.10;92.60
43338;DHT22;28933;52.492;13.434;2023-03-11T15:22:28;6.10;92.60
43338;DHT22;28933;52.492;13.434;2023-03-11T15:24:57;6.10;92.80
43338;DHT22;28933;52.492;13.434;2023-03-11T15:27:35;6.20;92.90
43338;DHT22;28933;52.492;13.434;2023-03-11T15:30:19;6.10;92.40
43338;DHT22;28933;52.492;13.434;2023-03-11T15:32:45;6.10;92.80
43338;DHT22;28933;52.492;13.434;2023-03-11T15:35:19;6.10;92.90
43338;DHT22;28933;52.492;13.434;2023-03-11T15:37:47;6.20;93.00
43338;DHT22;28933;52.492;13.434;2023-03-11T15:43:02;6.40;93.00
43338;DHT22;28933;52.492;13.434;2023-03-11T15:45:35;6.40;92.50
43338;DHT22;28933;52.492;13.434;2023-03-11T15:48:01;6.40;92.20
43338;DHT22;28933;52.492;13.434;2023-03-11T15:50:26;6.40;92.50
43338;DHT22;28933;52.492;13.434;2023-03-11T15:52:54;6.50;92.60
43338;DHT22;28933;52.492;13.434;2023-03-11T15:55:21;6.50;92.30
43338;DHT22;28933;52.492;13.434;2023-03-11T15:57:47;6.60;92.50
43338;DHT22;28933;52.492;13.434;2023-03-11T16:00:20;6.60;92.50
43338;DHT22;28933;52.492;13.434;2023-03-11T16:02:47;6.60;91.90
43338;DHT22;28933;52.492;13.434;2023-03-11T16:05:15;6.60;91.80
43338;DHT22;28933;52.492;13.434;2023-03-11T16:07:41;6.60;91.60
43338;DHT22;28933;52.492;13.434;2023-03-11T16:10:08;6.60;91.60
43338;DHT22;28933;52.492;13.434;2023-03-11T16:12:34;6.60;90.90
43338;DHT22;28933;52.492;13.434;2023-03-11T16:14:59;6.60;90.70
43338;DHT22;28933;52.492;13.434;2023-03-11T16:17:25;6.40;90.30
43338;DHT22;28933;52.492;13.434;2023-03-11T16:19:51;6.30;90.20
43338;DHT22;28933;52.492;13.434;2023-03-11T16:22:29;6.30;90.60
43338;DHT22;28933;52.492;13.434;2023-03-11T16:24:55;6.30;90.50
43338;DHT22;28933;52.492;13.434;2023-03-11T16:27:21;6.20;90.80
43338;DHT22;28933;52.492;13.434;2023-03-11T16:29:47;6.30;90.80
43338;DHT22;28933;52.492;13.434;2023-03-11T16:32:13;6.20;90.60
43338;DHT22;28933;52.492;13.434;2023-03-11T16:34:39;6.20;90.70
43338;DHT22;28933;52.492;13.434;2023-03-11T16:37:06;6.10;90.60
43338;DHT22;28933;52.492;13.434;2023-03-11T16:39:32;6.10;90.80
43338;DHT22;28933;52.492;13.434;2023-03-11T16:41:58;6.00;90.60
43338;DHT22;28933;52.492;13.434;2023-03-11T16:44:24;5.90;90.80
43338;DHT22;28933;52.492;13.434;2023-03-11T16:46:50;5.90;90.80
43338;DHT22;28933;52.492;13.434;2023-03-11T16:49:16;5.80;91.00
43338;DHT22;28933;52.492;13.434;2023-03-11T16:51:41;5.90;91.10
43338;DHT22;28933;52.492;13.434;2023-03-11T16:54:07;5.80;91.20
43338;DHT22;28933;52.492;13.434;2023-03-11T16:56:33;5.80;91.20
43338;DHT22;28933;52.492;13.434;2023-03-11T16:58:59;5.80;91.10
43338;DHT22;28933;52.492;13.434;2023-03-11T17:01:25;5.80;91.20
43338;DHT22;28933;52.492;13.434;2023-03-11T17:03:51;5.70;91.10
43338;DHT22;28933;52.492;13.434;2023-03-11T17:06:18;5.70;91.30
43338;DHT22;28933;52.492;13.434;2023-03-11T17:08:44;5.60;91.30